Nearby METAR Reports

 

KLOT - Romeoville/Chi, Illinois, USA
Distance from station: N 3mi, 5km
Updated: Thu, 21-Mar-2019 8:55am CDT
Overcast
Overcast
 Wind from N
Wind: N 13 mph , 20 km/h
Temperature: 37°F , 3°C
Wind Chill: 29°F , -2°C
Dew Point: 36°F , 2°C
Humidity: 93%
Barometer: 29.99 inHg , 1015.6 hPa
Clouds: Overcast
Visibility: 7 miles , 11 km
Cloud details: Overcast 900 ft
2019/03/21 13:55 KLOT 211355Z AUTO 36011KT 7SM OVC009 03/02 A2999 RMK AO2 T00310020
KJOT - Joliet, Illinois, USA
Distance from station: WSW 5mi, 7km
Updated: Thu, 21-Mar-2019 8:55am CDT
Overcast
Overcast
 Wind from N
Wind: N 10 mph , 17 km/h
Temperature: 39°F , 4°C
Wind Chill: 32°F , 0°C
Dew Point: 39°F , 4°C
Humidity: 100%
Barometer: 29.99 inHg , 1015.6 hPa
Clouds: Overcast
Visibility: 7 miles , 11 km
Cloud details: Overcast 1000 ft
2019/03/21 13:55 KJOT 211355Z AUTO 35009KT 7SM OVC010 04/04 A2999 RMK AO2 T00430037
 
KC09 - Morris-Washburn, Illinois, USA
Distance from station: WSW 18mi, 29km
Updated: Thu, 21-Mar-2019 8:55am CDT
Overcast
Overcast
 Wind from NNW
Wind: NNW 10 mph , 17 km/h, Gust: 17 mph , 28 km/h
Temperature: 39°F , 4°C
Wind Chill: 32°F , 0°C
Dew Point: 36°F , 2°C
Humidity: 87%
Barometer: 30.00 inHg , 1015.9 hPa
Clouds: Overcast
Visibility: 10 miles , 16 km
Cloud details: Overcast 1300 ft
2019/03/21 13:55 KC09 211355Z AUTO 34009G15KT 10SM OVC013 04/02 A3000 RMK AO2 T00350020
KARR - Chicago/Aurora, Illinois, USA
Distance from station: NW 24mi, 39km
Updated: Thu, 21-Mar-2019 8:52am CDT
Mist, Overcast
Mist, Overcast
 Wind from NNW
Wind: NNW 15 mph , 24 km/h
Temperature: 37°F , 3°C
Wind Chill: 28°F , -2°C
Dew Point: 34°F , 1°C
Humidity: 87%
Barometer: 29.99 inHg , 1015.6 hPa
Summary: Mist
Clouds: Overcast
Visibility: 5 miles , 8 km
Cloud details: Partly cloudy 800 ft
Overcast 1500 ft
2019/03/21 13:52 KARR 211352Z 33013KT 5SM BR SCT008 OVC015 03/01 A2999 RMK AO2 SLP163 T00280011
 
KMDW - Chicago, Illinois, USA
Distance from station: NE 25mi, 39km
Updated: Thu, 21-Mar-2019 8:53am CDT
Mist, Overcast
Mist, Overcast
 Wind from N
Wind: N 10 mph , 17 km/h
Temperature: 37°F , 3°C
Wind Chill: 30°F , -1°C
Dew Point: 36°F , 2°C
Humidity: 93%
Barometer: 29.98 inHg , 1015.2 hPa
Summary: Mist
Clouds: Overcast
Visibility: 2 miles , 3 km
Cloud details: Overcast 500 ft
2019/03/21 13:53 KMDW 211353Z 01009KT 2SM BR OVC005 03/02 A2998 RMK AO2 RAE13 SLP159 P0000 T00330022
KDPA - Chicago/Dupage, Illinois, USA
Distance from station: NNW 26mi, 42km
Updated: Thu, 21-Mar-2019 8:52am CDT
Mist, Overcast
Mist, Overcast
 Wind from NNW
Wind: NNW 14 mph , 22 km/h
Temperature: 37°F , 3°C
Wind Chill: 28°F , -2°C
Dew Point: 34°F , 1°C
Humidity: 87%
Barometer: 29.99 inHg , 1015.6 hPa
Summary: Mist
Clouds: Overcast
Visibility: 6 miles , 10 km
Cloud details: Overcast 900 ft
2019/03/21 13:52 KDPA 211352Z 34012KT 6SM BR OVC009 03/01 A2999 RMK AO2 RAE00 CIG 007V010 SLP160 P0000 T00330011
 
KIGQ - Chicago/Lansing, Illinois, USA
Distance from station: E 30mi, 48km
Updated: Thu, 21-Mar-2019 8:55am CDT
Mist, Overcast
Mist, Overcast
 Wind from N
Wind: N 12 mph , 19 km/h, Gust: 18 mph , 30 km/h
Temperature: 36°F , 2°C
Wind Chill: 28°F , -2°C
Dew Point: 36°F , 2°C
Humidity: 100%
Barometer: 29.97 inHg , 1014.9 hPa
Summary: Mist
Clouds: Overcast
Visibility: 1 3/4 miles , 2.8 km
Cloud details: Overcast 300 ft
2019/03/21 13:55 KIGQ 211355Z AUTO 36010G16KT 1 3/4SM BR OVC003 02/02 A2997 RMK AO2 P0001 T00240024
KORD - Chicago O'hare, Illinois, USA
Distance from station: NNE 31mi, 50km
Updated: Thu, 21-Mar-2019 8:51am CDT
Mist, Overcast
Mist, Overcast
 Wind from N
Wind: N 12 mph , 19 km/h
Temperature: 37°F , 3°C
Wind Chill: 29°F , -2°C
Dew Point: 36°F , 2°C
Humidity: 93%
Barometer: 29.98 inHg , 1015.2 hPa
Summary: Mist
Clouds: Overcast
Visibility: 4 miles , 6 km
Cloud details: Overcast 700 ft
2019/03/21 13:51 KORD 211351Z 35010KT 4SM BR OVC007 03/02 A2998 RMK AO2 SLP157 T00280017
 
KGYY - Gary Regional, Indiana, USA
Distance from station: E 36mi, 58km
Updated: Thu, 21-Mar-2019 8:45am CDT
Light rain, Mist, Overcast
Light rain, Mist, Overcast
 Wind from NNW
Wind: NNW 17 mph , 28 km/h, Gust: 29 mph , 46 km/h
Temperature: 37°F , 3°C
Wind Chill: 27°F , -3°C
Dew Point: 37°F , 3°C
Humidity: 100%
Barometer: 29.98 inHg , 1015.2 hPa
Summary: Light rain, Mist
Clouds: Overcast
Visibility: 3/4 mile , 1.2 km
Cloud details: Overcast 100 ft
2019/03/21 13:45 KGYY 211345Z 34015G25KT 3/4SM R30/2600 -RA BR OVC001 03/03 A2998
KIKK - Kankakee, Illinois, USA
Distance from station: SSE 36mi, 58km
Updated: Thu, 21-Mar-2019 8:55am CDT
Mist, Overcast
Mist, Overcast
 Wind from NNW
Wind: NNW 13 mph , 20 km/h
Temperature: 37°F , 3°C
Wind Chill: 29°F , -2°C
Dew Point: 36°F , 2°C
Humidity: 93%
Barometer: 29.98 inHg , 1015.2 hPa
Summary: Mist
Clouds: Overcast
Visibility: 4 miles , 6 km
Cloud details: Overcast 600 ft
2019/03/21 13:55 KIKK 211355Z AUTO 34011KT 4SM BR OVC006 03/02 A2998 RMK AO2 T00300021
 
KDKB - De Kalb, Illinois, USA
Distance from station: NW 40mi, 65km
Updated: Thu, 21-Mar-2019 8:55am CDT
Mist, Overcast
Mist, Overcast
 Wind from NNW
Wind: NNW 14 mph , 22 km/h
Temperature: 36°F , 2°C
Wind Chill: 27°F , -3°C
Dew Point: 36°F , 2°C
Humidity: 100%
Barometer: 30.02 inHg , 1016.6 hPa
Summary: Mist
Clouds: Overcast
Visibility: 3 miles , 5 km
Cloud details: Overcast 1000 ft
2019/03/21 13:55 KDKB 211355Z AUTO 34012KT 3SM BR OVC010 02/02 A3002 RMK AO2 T00240015
KPWK - Palwaukee, Illinois, USA
Distance from station: NNE 41mi, 65km
Updated: Thu, 21-Mar-2019 8:52am CDT
Mist, Overcast
Mist, Overcast
 Wind from N
Wind: N 9 mph , 15 km/h
Temperature: 37°F , 3°C
Wind Chill: 30°F , -1°C
Dew Point: 34°F , 1°C
Humidity: 87%
Barometer: 30.01 inHg , 1016.3 hPa
Summary: Mist
Clouds: Overcast
Visibility: 4 miles , 6 km
Cloud details: Overcast 700 ft
2019/03/21 13:52 KPWK 211352Z 35008KT 4SM BR OVC007 03/01 A3001 RMK AO2 SLP167 T00330011